Time;durP1;ratioP1;P1;durP2;ratioP2;P2;SDS_P1;SDS_P2;PMS_P1;PMS_P2;Temp;Humidity;BMP_temperature;BMP_pressure;BME280_temperature;BME280_humidity;BME280_pressure;Samples;Min_cycle;Max_cycle;Signal;HPM_P1;HPM_P2
2022/12/31 00:00:28;;;;;;;;;11.75;9.00;;;;;15.89;70.52;100253.22;5045489;28;45238;-43
2022/12/31 00:02:53;;;;;;;;;2.75;1.25;;;;;15.88;69.80;100262.06;5027896;28;45263;-45
2022/12/31 00:05:19;;;;;;;;;7.75;7.00;;;;;15.87;70.13;100255.94;5042225;28;45462;-44
2022/12/31 00:07:44;;;;;;;;;2.00;1.25;;;;;15.87;70.38;100265.66;5048313;28;46427;-44
2022/12/31 00:10:10;;;;;;;;;1.75;1.00;;;;;15.86;70.55;100266.59;5047045;28;45503;-44
2022/12/31 00:12:35;;;;;;;;;14.50;11.00;;;;;15.83;70.69;100274.66;5045902;28;45451;-44
2022/12/31 00:15:00;;;;;;;;;1.25;1.25;;;;;15.83;69.96;100272.03;5041582;28;47203;-47
2022/12/31 00:17:26;;;;;;;;;20.00;18.00;;;;;15.82;70.40;100265.91;5045194;28;45250;-46
2022/12/31 00:19:51;;;;;;;;;2.25;1.50;;;;;15.80;70.09;100265.16;5042708;28;57941;-45
2022/12/31 00:22:16;;;;;;;;;5.50;3.25;;;;;15.80;70.50;100257.25;5047736;28;49819;-44
2022/12/31 00:24:42;;;;;;;;;2.50;2.00;;;;;15.79;70.44;100268.72;5043822;28;45212;-46
2022/12/31 00:27:07;;;;;;;;;3.00;2.00;;;;;15.79;69.94;100259.97;5053545;28;53524;-45
2022/12/31 00:29:32;;;;;;;;;5.50;3.00;;;;;15.81;69.96;100277.41;5043694;28;56719;-48
2022/12/31 00:31:58;;;;;;;;;1.75;1.00;;;;;15.80;69.93;100282.78;5049742;28;64140;-49
2022/12/31 00:34:23;;;;;;;;;2.25;2.25;;;;;15.79;69.94;100279.28;5044605;28;45407;-46
2022/12/31 00:36:48;;;;;;;;;1.00;1.00;;;;;15.79;70.20;100292.47;5048276;28;45425;-44
2022/12/31 00:39:14;;;;;;;;;3.25;0.50;;;;;15.80;70.06;100291.53;5041902;28;45497;-49
2022/12/31 00:41:39;;;;;;;;;1.25;0.50;;;;;15.83;69.80;100290.50;5045941;28;45415;-51
2022/12/31 00:44:05;;;;;;;;;3.50;1.75;;;;;15.83;69.56;100286.09;5040183;28;45550;-46
2022/12/31 00:46:30;;;;;;;;;1.50;1.50;;;;;15.84;69.63;100302.78;5027480;28;58746;-47
2022/12/31 00:48:56;;;;;;;;;3.00;1.50;;;;;15.84;69.93;100294.84;5042975;28;45381;-46
2022/12/31 00:51:23;;;;;;;;;1.00;1.00;;;;;15.86;69.99;100300.91;5042757;28;45672;-46
2022/12/31 00:53:48;;;;;;;;;2.50;1.00;;;;;15.85;69.79;100302.69;5039111;28;45302;-49
2022/12/31 00:56:16;;;;;;;;;0.50;0.50;;;;;15.84;70.26;100298.34;5040853;28;45428;-47
2022/12/31 00:58:42;;;;;;;;;0.50;0.50;;;;;15.83;69.99;100295.78;5041512;28;45488;-49
2022/12/31 01:01:11;;;;;;;;;3.00;1.50;;;;;15.85;70.17;100297.41;5043229;28;65413;-48
2022/12/31 01:03:37;;;;;;;;;8.00;3.00;;;;;15.86;70.25;100300.91;5048852;28;48221;-46
2022/12/31 01:06:03;;;;;;;;;3.25;1.00;;;;;15.86;70.01;100298.25;5045134;28;45707;-45
2022/12/31 01:08:28;;;;;;;;;2.75;2.00;;;;;15.87;70.01;100311.38;5050251;28;45267;-45
2022/12/31 01:13:37;;;;;;;;;1.75;0.50;;;;;15.88;69.89;100306.94;5052149;28;45694;-47
2022/12/31 01:16:07;;;;;;;;;1.00;1.00;;;;;15.88;69.47;100326.28;5048521;28;52815;-43
2022/12/31 01:18:32;;;;;;;;;2.00;1.75;;;;;15.89;69.35;100314.75;5049046;28;45307;-48
2022/12/31 01:21:04;;;;;;;;;2.00;1.50;;;;;15.92;69.43;100316.41;5041215;28;60976;-45
2022/12/31 01:23:30;;;;;;;;;0.50;0.50;;;;;15.91;69.02;100307.59;5040990;28;46514;-49
2022/12/31 01:25:55;;;;;;;;;2.00;1.75;;;;;15.93;69.19;100318.09;5041443;28;45787;-48
2022/12/31 01:28:20;;;;;;;;;2.50;1.25;;;;;15.93;69.04;100332.13;5046002;28;55323;-46
2022/12/31 01:30:46;;;;;;;;;2.00;1.75;;;;;15.92;68.90;100322.53;5046160;28;60277;-45
2022/12/31 01:33:11;;;;;;;;;1.25;0.25;;;;;15.95;69.11;100324.13;5027912;28;57615;-46
2022/12/31 01:35:36;;;;;;;;;1.00;1.00;;;;;15.94;68.73;100344.38;5047947;28;61842;-46
2022/12/31 01:38:02;;;;;;;;;4.25;0.50;;;;;15.96;68.73;100331.13;5048680;28;45213;-47
2022/12/31 01:40:27;;;;;;;;;2.25;1.25;;;;;15.97;68.89;100330.19;5047501;28;46961;-47
2022/12/31 01:42:56;;;;;;;;;1.50;1.50;;;;;16.00;69.07;100359.03;5052792;28;45996;-45
2022/12/31 01:45:22;;;;;;;;;2.00;1.00;;;;;16.01;68.67;100338.78;5051390;28;45442;-45
2022/12/31 01:47:54;;;;;;;;;5.00;0.75;;;;;16.02;68.54;100362.44;5054455;28;45517;-46
2022/12/31 01:50:31;;;;;;;;;1.25;0.75;;;;;16.03;68.49;100344.81;5051846;28;45723;-48
2022/12/31 01:53:01;;;;;;;;;1.75;0.00;;;;;16.03;68.72;100350.09;5052226;28;45433;-46
2022/12/31 01:55:32;;;;;;;;;5.75;1.75;;;;;16.04;68.50;100359.72;5050015;28;45387;-47
2022/12/31 01:58:13;;;;;;;;;2.25;1.50;;;;;16.06;68.71;100360.47;5053048;28;45370;-48
2022/12/31 02:00:38;;;;;;;;;2.00;0.25;;;;;16.06;68.67;100368.38;5046156;28;45514;-49
2022/12/31 02:03:05;;;;;;;;;2.50;1.00;;;;;16.09;68.45;100373.50;5052613;28;57194;-47
2022/12/31 02:05:42;;;;;;;;;2.75;1.00;;;;;16.10;68.54;100369.94;5040008;28;45464;-49
2022/12/31 02:08:09;;;;;;;;;2.50;0.75;;;;;16.10;68.38;100376.06;5039687;28;45485;-46
2022/12/31 02:10:34;;;;;;;;;3.75;1.50;;;;;16.13;68.32;100367.13;5035016;28;45420;-45
2022/12/31 02:13:00;;;;;;;;;0.75;0.75;;;;;16.15;68.00;100365.25;5045814;28;55709;-46
2022/12/31 02:16:03;;;;;;;;;3.00;1.25;;;;;16.16;67.97;100355.53;5044334;28;55171;-47
2022/12/31 02:18:45;;;;;;;;;3.00;1.00;;;;;16.19;67.55;100361.50;5026176;28;45431;-46
2022/12/31 02:21:38;;;;;;;;;2.00;0.75;;;;;16.19;67.52;100365.94;5043249;28;45273;-44
2022/12/31 02:24:31;;;;;;;;;2.50;0.75;;;;;16.21;67.82;100359.63;5041427;28;46397;-43
2022/12/31 02:27:02;;;;;;;;;0.00;0.00;;;;;16.24;67.39;100366.53;5045853;28;45298;-45
2022/12/31 02:29:47;;;;;;;;;3.00;0.75;;;;;16.25;67.30;100365.56;5048336;28;45418;-47
2022/12/31 02:32:47;;;;;;;;;0.00;0.00;;;;;16.26;66.98;100356.72;5048683;28;45670;-44
2022/12/31 02:35:31;;;;;;;;;2.00;0.50;;;;;16.27;67.07;100371.63;5024598;28;46410;-46
2022/12/31 02:38:01;;;;;;;;;4.50;1.50;;;;;16.27;66.54;100361.06;5047222;28;45598;-44
2022/12/31 02:40:27;;;;;;;;;0.00;0.00;;;;;16.28;67.42;100370.69;5046383;28;45435;-46
2022/12/31 02:42:52;;;;;;;;;0.50;0.50;;;;;16.30;67.20;100372.28;5039066;28;45498;-44
2022/12/31 02:45:24;;;;;;;;;2.75;0.50;;;;;16.31;66.90;100378.44;5051212;28;70299;-46
2022/12/31 02:48:08;;;;;;;;;2.50;0.75;;;;;16.33;66.93;100379.19;5035547;28;45661;-44
2022/12/31 02:50:36;;;;;;;;;2.50;1.25;;;;;16.34;66.97;100386.16;5053100;28;45308;-43
2022/12/31 02:53:14;;;;;;;;;0.00;0.00;;;;;16.35;66.68;100382.59;5051441;28;45571;-43
2022/12/31 02:56:01;;;;;;;;;3.50;1.75;;;;;16.35;66.54;100382.59;5044612;28;45491;-44
2022/12/31 03:02:12;;;;;;;;;2.00;0.00;;;;;16.35;66.62;100384.41;5045776;28;45647;-43
2022/12/31 03:04:30;;;;;;;;;3.00;0.75;;;;;16.37;66.29;100379.88;5049821;28;45406;-43
2022/12/31 03:06:50;;;;;;;;;1.75;1.75;;;;;16.36;65.97;100388.72;5049080;28;45367;-44
2022/12/31 03:09:15;;;;;;;;;1.25;0.75;;;;;16.36;66.45;100396.66;5050349;28;45898;-45
2022/12/31 03:14:24;;;;;;;;;2.00;1.25;;;;;16.38;66.08;100423.81;5049652;28;45467;-43
2022/12/31 03:16:50;;;;;;;;;0.75;0.25;;;;;16.38;66.19;100405.34;5042309;28;46052;-44
2022/12/31 03:27:27;;;;;;;;;2.00;0.25;;;;;16.37;66.00;100406.28;5046036;28;45910;-45
2022/12/31 03:29:52;;;;;;;;;0.50;0.50;;;;;16.36;65.71;100402.81;5054104;28;66395;-44
2022/12/31 03:32:18;;;;;;;;;2.25;0.00;;;;;16.36;66.17;100418.66;5045097;28;45352;-48
2022/12/31 03:34:44;;;;;;;;;1.00;0.75;;;;;16.36;65.96;100421.28;5052369;28;64096;-45
2022/12/31 03:37:09;;;;;;;;;1.75;0.75;;;;;16.37;66.07;100422.97;5049516;28;59098;-43
2022/12/31 03:39:34;;;;;;;;;0.25;0.00;;;;;16.35;65.90;100432.78;5052896;28;61640;-47
2022/12/31 03:42:00;;;;;;;;;1.50;1.50;;;;;16.36;65.52;100426.56;5055399;28;52406;-44
2022/12/31 03:44:25;;;;;;;;;0.25;0.00;;;;;16.36;65.62;100425.69;5024898;28;45565;-44
2022/12/31 03:46:50;;;;;;;;;1.25;0.75;;;;;16.39;65.93;100433.47;5048570;28;68455;-45
2022/12/31 03:49:16;;;;;;;;;2.25;1.25;;;;;16.37;65.51;100433.53;5040918;28;56963;-47
2022/12/31 03:51:41;;;;;;;;;3.75;0.75;;;;;16.39;65.84;100446.66;5049512;28;53052;-45
2022/12/31 03:54:07;;;;;;;;;1.75;0.50;;;;;16.38;65.61;100427.34;5052314;28;57669;-47
2022/12/31 03:56:32;;;;;;;;;1.25;0.50;;;;;16.39;65.32;100431.66;5055051;28;47446;-46
2022/12/31 03:58:57;;;;;;;;;1.50;1.00;;;;;16.40;65.59;100419.31;5047471;28;65561;-44
2022/12/31 04:01:24;;;;;;;;;1.50;1.50;;;;;16.38;65.12;100415.91;5048461;28;51513;-46
2022/12/31 04:03:49;;;;;;;;;2.00;0.00;;;;;16.37;65.28;100411.56;5049433;28;45709;-47
2022/12/31 04:06:14;;;;;;;;;0.75;0.75;;;;;16.35;64.90;100427.50;5042383;28;65089;-49
2022/12/31 04:08:40;;;;;;;;;1.00;1.00;;;;;16.36;64.78;100428.34;5053905;28;63709;-46
2022/12/31 04:11:05;;;;;;;;;2.25;1.50;;;;;16.33;65.12;100432.03;5052507;28;51900;-46
2022/12/31 04:13:30;;;;;;;;;0.75;0.00;;;;;16.35;64.96;100431.94;5049866;28;45482;-46
2022/12/31 04:15:56;;;;;;;;;1.00;0.00;;;;;16.36;64.58;100420.41;5048534;28;61320;-50
2022/12/31 04:18:21;;;;;;;;;3.25;0.75;;;;;16.36;64.72;100425.69;5041318;28;53544;-47
2022/12/31 04:20:47;;;;;;;;;3.25;1.75;;;;;16.36;64.85;100428.34;5042197;28;62371;-47
2022/12/31 04:23:12;;;;;;;;;4.25;1.25;;;;;16.33;64.72;100406.44;5042143;28;45526;-49
2022/12/31 04:25:37;;;;;;;;;1.50;0.75;;;;;16.34;64.92;100412.56;5045643;28;51699;-50
2022/12/31 04:28:03;;;;;;;;;3.00;0.75;;;;;16.33;64.75;100408.25;5040527;28;63936;-45
2022/12/31 04:30:28;;;;;;;;;2.25;0.75;;;;;16.32;64.84;100401.25;5051034;28;45384;-50
2022/12/31 04:32:53;;;;;;;;;3.25;1.00;;;;;16.31;64.86;100408.34;5043159;28;62831;-48
2022/12/31 04:35:19;;;;;;;;;1.50;0.75;;;;;16.30;64.26;100424.25;5041753;28;62461;-43
2022/12/31 04:37:44;;;;;;;;;3.00;2.00;;;;;16.28;65.04;100424.34;5045519;28;45255;-49
2022/12/31 04:40:10;;;;;;;;;2.50;1.50;;;;;16.30;64.96;100427.75;5045060;28;45731;-45
2022/12/31 04:42:36;;;;;;;;;1.00;1.00;;;;;16.30;64.86;100443.59;5045807;28;45296;-46
2022/12/31 04:45:01;;;;;;;;;2.50;1.25;;;;;16.29;64.46;100430.50;5054422;28;45546;-47
2022/12/31 04:47:26;;;;;;;;;5.75;1.25;;;;;16.30;64.91;100433.03;5049796;28;46474;-47
2022/12/31 04:49:52;;;;;;;;;4.00;1.00;;;;;16.31;64.70;100421.53;5043943;28;48829;-45
2022/12/31 04:52:17;;;;;;;;;6.00;2.00;;;;;16.32;64.36;100435.59;5042709;28;63772;-44
2022/12/31 04:54:42;;;;;;;;;1.75;0.75;;;;;16.31;64.39;100426.81;5051792;28;65290;-47
2022/12/31 04:57:08;;;;;;;;;4.00;2.00;;;;;16.33;64.58;100405.63;5046260;28;58126;-50
2022/12/31 04:59:33;;;;;;;;;1.50;1.25;;;;;16.34;64.66;100431.06;5051978;28;45335;-47
2022/12/31 05:01:58;;;;;;;;;5.00;1.75;;;;;16.34;64.84;100425.78;5039821;28;45264;-46
2022/12/31 05:04:24;;;;;;;;;0.75;0.75;;;;;16.35;64.67;100419.56;5053585;28;45505;-45
2022/12/31 05:06:49;;;;;;;;;2.00;2.00;;;;;16.33;64.67;100435.50;5050736;28;45333;-45
2022/12/31 05:09:14;;;;;;;;;1.25;1.00;;;;;16.35;64.46;100434.56;5046975;28;50837;-45
2022/12/31 05:11:40;;;;;;;;;3.00;1.00;;;;;16.32;64.49;100436.47;5041679;28;56192;-49
2022/12/31 05:14:05;;;;;;;;;0.25;0.25;;;;;16.32;64.65;100452.31;5052783;28;62872;-45
2022/12/31 05:16:30;;;;;;;;;1.00;0.75;;;;;16.33;64.36;100445.22;5051669;28;62071;-46
2022/12/31 05:18:56;;;;;;;;;2.75;1.00;;;;;16.33;63.99;100450.50;5039926;28;49798;-46
2022/12/31 05:21:21;;;;;;;;;1.75;1.25;;;;;16.35;64.40;100461.00;5044028;28;45440;-45
2022/12/31 05:23:47;;;;;;;;;2.00;1.75;;;;;16.33;64.11;100447.88;5053479;28;45320;-43
2022/12/31 05:26:13;;;;;;;;;4.00;0.75;;;;;16.33;64.34;100461.06;5043460;28;45482;-44
2022/12/31 05:28:38;;;;;;;;;2.25;0.75;;;;;16.33;64.37;100447.88;5045511;28;45481;-47
2022/12/31 05:31:04;;;;;;;;;0.75;0.75;;;;;16.33;64.15;100456.63;5049496;28;45282;-45
2022/12/31 05:33:29;;;;;;;;;1.00;0.00;;;;;16.32;64.23;100457.59;5042356;28;64601;-46
2022/12/31 05:35:57;;;;;;;;;4.00;0.75;;;;;16.33;64.30;100474.28;5045540;28;55700;-44
2022/12/31 05:38:22;;;;;;;;;2.00;0.25;;;;;16.35;64.13;100471.56;5052076;28;45254;-45
2022/12/31 05:40:47;;;;;;;;;2.75;1.75;;;;;16.36;64.43;100463.53;5045867;28;45267;-44
2022/12/31 05:43:13;;;;;;;;;2.75;1.50;;;;;16.36;64.07;100476.75;5038354;28;67554;-43
2022/12/31 05:45:38;;;;;;;;;2.00;0.75;;;;;16.38;64.18;100474.00;5046283;28;67549;-44
2022/12/31 05:48:04;;;;;;;;;3.75;1.00;;;;;16.38;63.97;100476.63;5040245;28;45420;-46
2022/12/31 05:50:29;;;;;;;;;1.25;0.75;;;;;16.37;63.91;100473.16;5041817;28;45414;-44
2022/12/31 05:52:55;;;;;;;;;1.75;1.00;;;;;16.36;63.72;100474.09;5039520;28;47025;-44
2022/12/31 05:55:20;;;;;;;;;1.75;0.25;;;;;16.34;63.80;100481.25;5048802;28;48513;-44
2022/12/31 05:57:45;;;;;;;;;0.75;0.00;;;;;16.34;64.18;100478.59;5041848;28;45353;-44
2022/12/31 06:00:11;;;;;;;;;1.75;0.75;;;;;16.35;64.05;100477.66;5050156;28;61985;-43
2022/12/31 06:02:37;;;;;;;;;2.25;0.00;;;;;16.33;63.99;100480.41;5043625;28;46047;-45
2022/12/31 06:05:02;;;;;;;;;2.25;1.75;;;;;16.33;64.05;100485.69;5040009;28;45534;-45
2022/12/31 06:07:28;;;;;;;;;2.00;2.00;;;;;16.34;64.15;100478.59;5043937;28;45393;-44
2022/12/31 06:09:53;;;;;;;;;5.75;2.25;;;;;16.35;63.97;100484.75;5040532;28;46625;-43
2022/12/31 06:12:18;;;;;;;;;4.75;0.00;;;;;16.33;63.76;100480.41;5047769;28;46139;-47
2022/12/31 06:14:44;;;;;;;;;4.00;0.75;;;;;16.31;63.86;100494.63;5047703;28;45450;-45
2022/12/31 06:17:09;;;;;;;;;3.00;1.75;;;;;16.30;63.49;100498.19;5047099;28;45369;-46
2022/12/31 06:19:35;;;;;;;;;4.25;1.50;;;;;16.29;64.01;100493.88;5045865;28;64233;-45
2022/12/31 06:22:00;;;;;;;;;3.75;1.50;;;;;16.28;63.79;100490.34;5051075;28;47814;-43
2022/12/31 06:24:25;;;;;;;;;4.25;1.25;;;;;16.27;63.81;100493.94;5042492;28;45370;-44
2022/12/31 06:26:51;;;;;;;;;4.00;2.00;;;;;16.26;63.72;100513.34;5042952;28;54927;-45
2022/12/31 06:29:16;;;;;;;;;2.25;0.00;;;;;16.27;63.95;100520.34;5047905;28;45327;-43
2022/12/31 06:31:41;;;;;;;;;2.50;2.00;;;;;16.27;63.79;100514.19;5042166;28;50950;-45
2022/12/31 06:34:07;;;;;;;;;4.00;2.00;;;;;16.28;63.57;100508.84;5049772;28;61255;-43
2022/12/31 06:36:32;;;;;;;;;2.75;2.75;;;;;16.28;63.88;100518.56;5045074;28;49812;-47
2022/12/31 06:38:57;;;;;;;;;7.00;2.00;;;;;16.27;63.52;100511.56;5052085;28;56845;-46
2022/12/31 06:41:23;;;;;;;;;3.75;2.00;;;;;16.28;63.46;100518.56;5050626;28;46218;-45
2022/12/31 06:43:48;;;;;;;;;2.50;2.00;;;;;16.24;63.61;100514.38;5040755;28;51974;-45
2022/12/31 06:46:15;;;;;;;;;3.00;3.00;;;;;16.28;63.36;100532.59;5049337;28;45366;-45
2022/12/31 06:48:43;;;;;;;;;2.25;1.75;;;;;16.28;63.40;100527.31;5041105;28;45318;-44
2022/12/31 06:51:12;;;;;;;;;5.00;1.75;;;;;16.29;63.56;100522.91;5050635;28;47875;-44
2022/12/31 06:53:37;;;;;;;;;3.00;2.00;;;;;16.28;63.39;100537.88;5047059;28;45341;-44
2022/12/31 06:56:13;;;;;;;;;2.50;2.25;;;;;16.28;63.64;100535.25;5040784;28;45419;-46
2022/12/31 06:58:39;;;;;;;;;1.50;1.00;;;;;16.29;63.57;100539.59;5041583;28;45351;-43
2022/12/31 07:01:26;;;;;;;;;2.75;1.00;;;;;16.30;63.02;100549.22;5047505;28;45512;-45
2022/12/31 07:04:10;;;;;;;;;0.75;0.75;;;;;16.28;62.75;100543.16;5044281;28;45462;-46
2022/12/31 07:06:47;;;;;;;;;1.75;1.75;;;;;16.28;63.60;100548.44;5042007;28;45442;-46
2022/12/31 07:09:25;;;;;;;;;2.00;1.75;;;;;16.29;63.19;100544.03;5049792;28;45407;-44
2022/12/31 07:11:56;;;;;;;;;3.50;2.50;;;;;16.30;62.77;100543.09;5055559;28;46097;-46
2022/12/31 07:14:42;;;;;;;;;1.25;1.00;;;;;16.30;63.55;100540.44;5050800;28;45443;-44
2022/12/31 07:17:11;;;;;;;;;5.00;1.50;;;;;16.29;62.75;100533.47;5047866;28;45622;-46
2022/12/31 07:20:06;;;;;;;;;4.25;1.25;;;;;16.28;62.97;100545.81;5046956;28;45441;-44
2022/12/31 07:22:32;;;;;;;;;3.50;1.75;;;;;16.27;63.07;100544.13;5050559;28;45558;-47
2022/12/31 07:24:58;;;;;;;;;4.00;2.00;;;;;16.29;62.92;100544.03;5047922;28;45260;-47
2022/12/31 07:28:00;;;;;;;;;2.25;1.75;;;;;16.29;63.23;100534.31;5054770;28;45414;-48
2022/12/31 07:30:48;;;;;;;;;2.50;1.75;;;;;16.29;63.11;100544.03;5048383;28;45315;-46
2022/12/31 07:33:20;;;;;;;;;3.00;2.50;;;;;16.30;62.96;100556.28;5040125;28;46245;-45
2022/12/31 07:35:57;;;;;;;;;1.50;1.50;;;;;16.31;62.87;100564.13;5055819;28;45399;-47
2022/12/31 07:38:53;;;;;;;;;3.00;3.00;;;;;16.33;62.75;100564.91;5048908;28;45364;-46
2022/12/31 07:41:38;;;;;;;;;5.75;3.25;;;;;16.32;62.98;100560.56;5049912;28;45316;-46
2022/12/31 07:44:12;;;;;;;;;3.25;3.00;;;;;16.32;62.96;100572.91;5040932;28;47266;-48
2022/12/31 07:46:54;;;;;;;;;0.75;0.75;;;;;16.33;62.73;100572.81;5048056;28;45633;-50
2022/12/31 07:49:19;;;;;;;;;4.50;3.00;;;;;16.35;62.92;100564.81;5044170;28;45457;-49
2022/12/31 07:51:45;;;;;;;;;1.75;1.75;;;;;16.36;62.66;100584.16;5048869;28;45458;-47
2022/12/31 07:54:10;;;;;;;;;5.00;2.25;;;;;16.36;62.22;100584.16;5053993;28;47617;-49
2022/12/31 07:56:36;;;;;;;;;2.25;2.25;;;;;16.38;62.63;100584.91;5043741;28;45329;-48
2022/12/31 07:59:21;;;;;;;;;4.00;2.50;;;;;16.39;62.59;100602.47;5040747;28;45394;-50
2022/12/31 08:02:02;;;;;;;;;2.00;1.25;;;;;16.38;62.65;100614.84;5045451;28;45414;-47
2022/12/31 08:04:41;;;;;;;;;2.75;1.00;;;;;16.39;62.58;100613.91;5040115;28;46746;-50
2022/12/31 08:07:39;;;;;;;;;3.00;1.75;;;;;16.40;62.04;100593.63;5042975;28;45601;-50
2022/12/31 08:10:12;;;;;;;;;2.00;2.00;;;;;16.41;62.36;100600.59;4986499;28;45390;-45
2022/12/31 08:12:39;;;;;;;;;3.50;1.75;;;;;16.41;62.34;100592.69;5049242;28;45400;-45
2022/12/31 08:15:13;;;;;;;;;2.75;1.50;;;;;16.41;61.50;100597.97;5041340;28;45418;-43
2022/12/31 08:17:38;;;;;;;;;3.25;2.25;;;;;16.41;62.28;100608.53;5040811;28;45432;-47
2022/12/31 08:20:04;;;;;;;;;2.50;2.25;;;;;16.40;61.76;100589.19;5045073;28;45301;-45
2022/12/31 08:23:00;;;;;;;;;4.50;2.75;;;;;16.40;62.30;100615.63;5042650;28;45390;-46
2022/12/31 08:25:27;;;;;;;;;3.00;1.75;;;;;16.38;61.60;100621.91;5043018;28;45834;-46
2022/12/31 08:28:03;;;;;;;;;5.25;1.75;;;;;16.37;61.58;100636.91;5049189;28;45620;-46
2022/12/31 08:30:40;;;;;;;;;4.75;2.75;;;;;16.38;62.20;100622.78;5034021;28;45291;-48
2022/12/31 08:33:14;;;;;;;;;4.50;2.50;;;;;16.40;61.99;100622.69;5049395;28;45392;-47
2022/12/31 08:36:17;;;;;;;;;3.00;3.00;;;;;16.38;61.59;100621.91;5052734;28;46256;-46
2022/12/31 08:39:02;;;;;;;;;6.50;3.25;;;;;16.39;61.66;100623.63;5043421;28;45336;-48
2022/12/31 08:41:36;;;;;;;;;5.50;3.75;;;;;16.34;62.00;100613.28;5043254;28;45745;-46
2022/12/31 08:44:26;;;;;;;;;3.75;1.75;;;;;16.40;61.46;100630.63;5054106;28;45372;-44
2022/12/31 08:46:56;;;;;;;;;4.25;3.50;;;;;16.40;61.72;100625.34;5053726;28;46003;-44
2022/12/31 08:49:25;;;;;;;;;3.75;3.25;;;;;16.42;61.85;100647.22;5055962;28;45894;-46
2022/12/31 08:51:51;;;;;;;;;7.50;3.75;;;;;16.43;61.38;100643.63;5046335;28;45701;-44
2022/12/31 08:54:16;;;;;;;;;4.50;3.75;;;;;16.42;61.18;100641.94;5050676;28;45252;-46
2022/12/31 08:56:54;;;;;;;;;9.50;4.75;;;;;16.40;61.23;100652.59;5044512;28;45744;-46
2022/12/31 08:59:25;;;;;;;;;11.25;8.25;;;;;16.40;61.18;100644.66;5048574;28;45516;-47
2022/12/31 09:02:06;;;;;;;;;6.25;4.75;;;;;16.39;61.56;100642.94;5034733;28;45443;-45
2022/12/31 09:05:02;;;;;;;;;3.25;3.25;;;;;16.38;60.71;100654.47;5052799;28;45452;-47
2022/12/31 09:08:09;;;;;;;;;7.50;4.50;;;;;16.38;61.21;100651.81;5048255;28;45352;-47
2022/12/31 09:10:45;;;;;;;;;3.75;3.75;;;;;16.39;61.40;100663.22;5033495;28;45442;-49
2022/12/31 09:13:29;;;;;;;;;10.00;7.25;;;;;16.39;60.81;100660.59;5054412;28;45325;-47
2022/12/31 09:16:26;;;;;;;;;6.50;4.75;;;;;16.38;60.91;100670.31;5041736;28;45490;-46
2022/12/31 09:18:51;;;;;;;;;7.00;4.75;;;;;16.35;61.00;100659.91;5023172;28;45481;-50
2022/12/31 09:21:17;;;;;;;;;9.50;5.50;;;;;16.37;60.66;100655.38;5052749;28;53587;-48
2022/12/31 09:23:42;;;;;;;;;2.75;2.75;;;;;16.38;61.26;100656.22;5056419;28;45288;-51
2022/12/31 09:26:28;;;;;;;;;6.75;3.75;;;;;16.38;60.94;100670.31;5049472;28;45760;-50
2022/12/31 09:29:25;;;;;;;;;4.00;3.75;;;;;16.40;60.84;100665.78;5042669;28;46202;-50
2022/12/31 09:32:18;;;;;;;;;6.25;1.75;;;;;16.44;60.53;100659.41;5048418;28;45414;-47
2022/12/31 09:34:53;;;;;;;;;4.00;3.25;;;;;16.47;60.77;100663.69;5041253;28;45521;-50
2022/12/31 09:37:41;;;;;;;;;4.75;2.75;;;;;16.46;60.62;100657.53;5045014;28;45364;-51
2022/12/31 09:40:26;;;;;;;;;5.25;3.75;;;;;16.47;60.47;100661.06;5041652;28;46332;-48
2022/12/31 09:42:52;;;;;;;;;5.00;3.75;;;;;16.46;60.69;100649.59;5045832;28;45277;-46
2022/12/31 09:45:48;;;;;;;;;6.75;4.00;;;;;16.47;60.59;100661.06;5049384;28;45419;-47
2022/12/31 09:48:22;;;;;;;;;6.25;5.00;;;;;16.46;60.30;100683.94;5044192;28;45376;-45
2022/12/31 09:51:05;;;;;;;;;5.25;4.00;;;;;16.47;60.38;100669.81;5044168;28;46179;-48
2022/12/31 09:53:41;;;;;;;;;2.75;2.75;;;;;16.48;59.68;100668.03;5039541;28;45787;-45
2022/12/31 09:56:24;;;;;;;;;5.50;2.75;;;;;16.47;59.90;100672.47;5046165;28;45427;-44
2022/12/31 09:59:00;;;;;;;;;3.25;3.25;;;;;16.50;60.16;100660.88;5042707;28;45473;-44
2022/12/31 10:01:37;;;;;;;;;4.00;3.75;;;;;16.50;59.80;100650.31;5045102;28;46394;-46
2022/12/31 10:04:33;;;;;;;;;6.50;3.00;;;;;16.49;60.00;100656.53;5030430;28;45381;-46
2022/12/31 10:07:07;;;;;;;;;5.25;3.75;;;;;16.53;59.24;100655.44;5041909;28;45276;-50
2022/12/31 10:09:38;;;;;;;;;6.75;4.00;;;;;16.54;58.96;100664.19;5039168;28;45315;-46
2022/12/31 10:12:04;;;;;;;;;6.75;3.00;;;;;16.52;58.35;100666.94;5038953;28;46184;-47
2022/12/31 10:14:41;;;;;;;;;7.00;3.00;;;;;16.52;59.18;100659.88;5042924;28;45281;-46
2022/12/31 10:17:37;;;;;;;;;5.25;3.25;;;;;16.53;59.11;100663.34;5044831;28;45503;-48
2022/12/31 10:20:30;;;;;;;;;5.75;3.75;;;;;16.52;58.95;100651.09;5041296;28;45567;-50
2022/12/31 10:23:23;;;;;;;;;3.75;3.75;;;;;16.53;58.37;100655.44;5039225;28;45666;-44
2022/12/31 10:26:04;;;;;;;;;4.25;2.25;;;;;16.57;59.22;100650.84;5047796;28;45364;-46
2022/12/31 10:29:04;;;;;;;;;5.25;3.25;;;;;16.56;58.65;100650.00;5039208;28;45304;-48
2022/12/31 10:31:41;;;;;;;;;5.75;5.25;;;;;16.58;58.20;100648.13;5034149;28;45482;-46
2022/12/31 10:34:24;;;;;;;;;6.50;3.00;;;;;16.62;58.11;100656.72;5047565;28;45750;-48
2022/12/31 10:37:02;;;;;;;;;4.50;3.25;;;;;16.65;58.53;100657.41;5042222;28;45465;-48
2022/12/31 10:39:41;;;;;;;;;4.25;4.25;;;;;16.69;58.11;100661.59;5041472;28;45567;-47
2022/12/31 10:42:35;;;;;;;;;5.75;3.25;;;;;16.73;58.51;100648.22;5049833;28;45434;-45
2022/12/31 10:45:38;;;;;;;;;4.00;4.00;;;;;16.77;58.44;100652.41;5049338;28;46933;-48
2022/12/31 10:48:27;;;;;;;;;5.00;4.00;;;;;16.80;57.99;100653.13;5048410;28;45746;-47
2022/12/31 10:51:19;;;;;;;;;3.50;2.75;;;;;16.85;58.45;100647.59;5051736;28;45812;-46
2022/12/31 10:53:53;;;;;;;;;4.75;3.75;;;;;16.87;56.90;100638.66;5050930;28;45589;-46
2022/12/31 10:56:43;;;;;;;;;5.50;4.25;;;;;16.92;57.50;100633.09;5044332;28;45735;-45
2022/12/31 10:59:43;;;;;;;;;3.25;3.25;;;;;16.96;58.09;100616.13;5047081;28;45395;-44
2022/12/31 11:02:17;;;;;;;;;4.25;3.50;;;;;17.00;57.74;100614.19;5059745;28;45289;-47
2022/12/31 11:04:59;;;;;;;;;5.25;4.25;;;;;17.02;57.53;100629.00;5044381;28;45260;-45
2022/12/31 11:07:35;;;;;;;;;5.50;4.00;;;;;17.08;57.68;100615.44;5031853;28;47076;-44
2022/12/31 11:10:09;;;;;;;;;4.00;3.00;;;;;17.10;55.44;100615.34;5049061;28;45749;-46
2022/12/31 11:12:56;;;;;;;;;4.75;3.50;;;;;17.13;56.84;100617.84;5044379;28;45257;-50
2022/12/31 11:15:21;;;;;;;;;7.75;5.00;;;;;17.15;56.45;100623.03;5043917;28;45324;-46
2022/12/31 11:18:08;;;;;;;;;5.00;4.00;;;;;17.19;56.52;100624.56;5055426;28;46752;-44
2022/12/31 11:21:03;;;;;;;;;8.50;6.00;;;;;17.20;56.58;100613.06;5047516;28;45556;-45
2022/12/31 11:24:10;;;;;;;;;5.25;4.25;;;;;17.24;55.91;100609.28;5053407;28;45427;-45
2022/12/31 11:26:54;;;;;;;;;6.50;4.50;;;;;17.26;55.40;100610.03;5036881;28;45329;-44
2022/12/31 11:29:22;;;;;;;;;7.50;5.50;;;;;17.26;55.64;100610.91;5042520;28;46236;-44
2022/12/31 11:32:02;;;;;;;;;4.75;4.00;;;;;17.30;56.37;100613.38;5046429;28;45386;-45
2022/12/31 11:34:47;;;;;;;;;9.00;3.25;;;;;17.31;55.10;100604.50;5045772;28;45350;-51
2022/12/31 11:37:40;;;;;;;;;6.75;5.50;;;;;17.35;55.62;100608.66;5048700;28;45293;-51
2022/12/31 11:40:24;;;;;;;;;13.00;13.00;;;;;17.37;54.58;100612.06;5048238;28;45339;-51
2022/12/31 11:42:57;;;;;;;;;5.50;5.00;;;;;17.39;55.59;100604.94;5044792;28;45729;-49
2022/12/31 11:45:48;;;;;;;;;7.75;5.50;;;;;17.40;54.68;100614.56;5044798;28;45414;-50
2022/12/31 11:48:26;;;;;;;;;4.50;4.00;;;;;17.41;54.51;100618.91;5043071;28;45461;-48
2022/12/31 11:51:16;;;;;;;;;6.50;5.00;;;;;17.42;54.96;100604.72;5046967;28;45316;-51
2022/12/31 11:53:44;;;;;;;;;6.50;6.00;;;;;17.42;55.16;100605.59;5053916;28;45671;-52
2022/12/31 11:56:17;;;;;;;;;5.50;3.25;;;;;17.46;54.52;100609.78;5045109;28;45401;-51
2022/12/31 11:58:54;;;;;;;;;7.75;5.25;;;;;17.50;55.72;100605.16;5046742;28;45478;-52
2022/12/31 12:01:37;;;;;;;;;5.00;4.25;;;;;17.52;55.20;100597.97;5045000;28;46123;-49
2022/12/31 12:04:03;;;;;;;;;6.25;4.50;;;;;17.55;55.82;100594.31;5046358;28;45740;-49
2022/12/31 12:06:31;;;;;;;;;5.75;4.50;;;;;17.54;53.95;100580.22;5044430;28;45577;-51